Time;durP1;ratioP1;P1;durP2;ratioP2;P2;SDS_P1;SDS_P2;PMS_P1;PMS_P2;Temp;Humidity;BMP_temperature;BMP_pressure;BME280_temperature;BME280_humidity;BME280_pressure;Samples;Min_cycle;Max_cycle;Signal;HPM_P1;HPM_P2
2022/05/20 00:00:18;;;;;;;57.33;53.13;;;;;;;;;;5036899;28;20410;-89
2022/05/20 00:02:46;;;;;;;59.30;55.00;;;;;;;;;;5036753;28;20876;-90
2022/05/20 00:05:14;;;;;;;59.47;55.17;;;;;;;;;;5036943;28;20464;-89
2022/05/20 00:07:41;;;;;;;57.17;53.30;;;;;;;;;;5037135;28;20454;-89
2022/05/20 00:10:12;;;;;;;58.87;54.57;;;;;;;;;;5037021;28;20414;-90
2022/05/20 00:12:40;;;;;;;58.70;54.60;;;;;;;;;;5037022;28;20419;-90
2022/05/20 00:15:08;;;;;;;57.37;53.30;;;;;;;;;;5036810;28;20499;-90
2022/05/20 00:17:36;;;;;;;59.40;55.20;;;;;;;;;;5036601;28;20419;-90
2022/05/20 00:20:03;;;;;;;59.43;55.23;;;;;;;;;;5038207;28;20438;-90
2022/05/20 00:22:31;;;;;;;59.73;55.50;;;;;;;;;;5037822;28;20836;-90
2022/05/20 00:27:45;;;;;;;58.80;54.53;;;;;;;;;;5038157;28;20913;-90
2022/05/20 00:30:13;;;;;;;55.23;51.33;;;;;;;;;;5037557;28;20950;-90
2022/05/20 00:32:41;;;;;;;56.67;52.73;;;;;;;;;;5036630;28;20415;-90
2022/05/20 00:35:09;;;;;;;55.87;51.93;;;;;;;;;;5035966;28;20522;-90
2022/05/20 00:37:36;;;;;;;56.33;52.20;;;;;;;;;;5036822;28;20528;-89
2022/05/20 00:40:04;;;;;;;58.90;54.90;;;;;;;;;;5036107;28;20411;-89
2022/05/20 00:42:31;;;;;;;56.10;52.13;;;;;;;;;;5036581;28;20477;-90
2022/05/20 00:45:01;;;;;;;55.40;51.63;;;;;;;;;;5036512;28;20444;-90
2022/05/20 00:47:28;;;;;;;55.40;51.50;;;;;;;;;;5036096;28;20909;-89
2022/05/20 00:49:56;;;;;;;51.70;47.90;;;;;;;;;;5036501;28;20416;-90
2022/05/20 00:52:24;;;;;;;52.40;48.50;;;;;;;;;;5035955;28;20414;-89
2022/05/20 00:54:54;;;;;;;49.97;46.20;;;;;;;;;;5036438;28;20514;-89
2022/05/20 00:57:23;;;;;;;48.87;45.23;;;;;;;;;;5036304;28;20446;-90
2022/05/20 00:59:53;;;;;;;50.47;46.77;;;;;;;;;;5035914;28;20477;-90
2022/05/20 01:02:23;;;;;;;52.07;48.47;;;;;;;;;;5036092;28;20491;-90
2022/05/20 01:04:50;;;;;;;54.33;49.90;;;;;;;;;;5036058;28;20432;-89
2022/05/20 01:07:20;;;;;;;51.93;48.07;;;;;;;;;;5036065;28;20443;-89
2022/05/20 01:09:47;;;;;;;51.50;47.73;;;;;;;;;;5034508;28;20427;-90
2022/05/20 01:12:15;;;;;;;53.47;49.13;;;;;;;;;;5035996;28;20819;-90
2022/05/20 01:14:42;;;;;;;51.87;48.23;;;;;;;;;;5035929;28;20430;-89
2022/05/20 01:17:10;;;;;;;54.20;49.97;;;;;;;;;;5035877;28;20422;-89
2022/05/20 01:19:41;;;;;;;51.27;47.50;;;;;;;;;;5035523;28;20449;-89
2022/05/20 01:22:09;;;;;;;49.90;46.40;;;;;;;;;;5035099;28;20503;-89
2022/05/20 01:24:38;;;;;;;51.90;47.90;;;;;;;;;;5018701;28;20427;-89
2022/05/20 01:27:06;;;;;;;53.00;49.13;;;;;;;;;;5035342;28;20495;-90
2022/05/20 01:29:34;;;;;;;51.43;47.23;;;;;;;;;;5035241;28;20537;-89
2022/05/20 01:32:01;;;;;;;51.97;48.17;;;;;;;;;;5034149;28;20493;-90
2022/05/20 01:34:28;;;;;;;52.03;48.03;;;;;;;;;;5035013;28;20445;-89
2022/05/20 01:36:56;;;;;;;50.60;46.80;;;;;;;;;;5035159;28;20468;-89
2022/05/20 01:39:23;;;;;;;48.20;44.50;;;;;;;;;;5035499;28;20456;-89
2022/05/20 01:41:54;;;;;;;49.07;45.60;;;;;;;;;;5018066;28;20486;-89
2022/05/20 01:44:25;;;;;;;49.37;45.73;;;;;;;;;;5034555;28;20425;-89
2022/05/20 01:46:55;;;;;;;46.97;43.60;;;;;;;;;;5035010;28;20444;-89
2022/05/20 01:49:28;;;;;;;46.97;43.70;;;;;;;;;;5034941;28;20436;-89
2022/05/20 01:51:58;;;;;;;51.47;47.73;;;;;;;;;;5017711;28;20456;-89
2022/05/20 01:54:29;;;;;;;48.27;44.60;;;;;;;;;;5034888;28;20407;-89
2022/05/20 01:57:00;;;;;;;50.60;46.87;;;;;;;;;;5034798;28;20446;-89
2022/05/20 01:59:30;;;;;;;50.73;47.10;;;;;;;;;;5034599;28;20494;-89
2022/05/20 02:02:01;;;;;;;48.77;45.13;;;;;;;;;;5033852;28;20522;-89
2022/05/20 02:04:32;;;;;;;48.00;44.37;;;;;;;;;;5035011;28;20837;-88
2022/05/20 02:07:04;;;;;;;50.67;46.40;;;;;;;;;;5034852;28;20435;-89
2022/05/20 02:09:33;;;;;;;41.53;38.60;;;;;;;;;;5034829;28;20444;-88
2022/05/20 02:12:02;;;;;;;50.50;46.40;;;;;;;;;;5034763;28;20418;-89
2022/05/20 02:14:32;;;;;;;48.37;44.50;;;;;;;;;;5034791;28;20824;-88
2022/05/20 02:17:02;;;;;;;47.53;43.70;;;;;;;;;;5034437;28;20430;-89
2022/05/20 02:19:31;;;;;;;45.90;41.90;;;;;;;;;;5034556;28;20418;-89
2022/05/20 02:22:01;;;;;;;46.17;42.27;;;;;;;;;;5033128;28;20462;-89
2022/05/20 02:24:30;;;;;;;48.07;43.87;;;;;;;;;;5034608;28;20436;-88
2022/05/20 02:27:00;;;;;;;48.00;44.03;;;;;;;;;;5034401;28;20415;-88
2022/05/20 02:29:32;;;;;;;46.70;42.80;;;;;;;;;;5034419;28;20466;-89
2022/05/20 02:32:04;;;;;;;46.33;42.23;;;;;;;;;;5034071;28;20972;-89
2022/05/20 02:34:34;;;;;;;45.60;41.40;;;;;;;;;;5034278;28;20432;-89
2022/05/20 02:37:02;;;;;;;44.70;40.80;;;;;;;;;;5034036;28;20417;-89
2022/05/20 02:39:29;;;;;;;47.47;43.20;;;;;;;;;;5034115;28;20410;-88
2022/05/20 02:41:56;;;;;;;43.10;39.50;;;;;;;;;;5034604;28;20465;-89
2022/05/20 02:44:23;;;;;;;43.50;39.80;;;;;;;;;;5034506;28;20406;-89
2022/05/20 02:46:52;;;;;;;45.03;41.13;;;;;;;;;;5034363;28;20422;-90
2022/05/20 02:49:20;;;;;;;42.87;39.23;;;;;;;;;;5033794;28;20460;-89
2022/05/20 02:51:47;;;;;;;43.53;39.83;;;;;;;;;;5034626;28;20444;-89
2022/05/20 02:54:14;;;;;;;42.20;38.60;;;;;;;;;;5033810;28;20915;-89
2022/05/20 02:56:42;;;;;;;44.87;40.80;;;;;;;;;;5033745;28;20559;-89
2022/05/20 03:04:42;;;;;;;39.23;36.10;;;;;;;;;;5033842;28;21087;-89
2022/05/20 03:07:09;;;;;;;39.03;35.97;;;;;;;;;;5033900;28;20414;-89
2022/05/20 03:09:37;;;;;;;37.93;34.70;;;;;;;;;;5034213;28;20415;-88
2022/05/20 03:12:04;;;;;;;39.70;36.20;;;;;;;;;;5033857;28;20457;-88
2022/05/20 03:14:32;;;;;;;38.40;35.27;;;;;;;;;;5034094;28;20452;-89
2022/05/20 03:17:02;;;;;;;35.47;32.80;;;;;;;;;;5034004;28;20808;-89
2022/05/20 03:19:31;;;;;;;40.80;37.40;;;;;;;;;;5033971;28;20717;-88
2022/05/20 03:21:58;;;;;;;39.67;36.67;;;;;;;;;;5033575;28;20485;-89
2022/05/20 03:24:25;;;;;;;40.30;37.03;;;;;;;;;;5034125;28;20451;-88
2022/05/20 03:26:53;;;;;;;37.63;34.73;;;;;;;;;;5033899;28;20413;-89
2022/05/20 03:29:20;;;;;;;38.70;35.30;;;;;;;;;;5033694;28;20440;-89
2022/05/20 03:31:48;;;;;;;35.33;32.60;;;;;;;;;;5033804;28;20594;-88
2022/05/20 03:34:18;;;;;;;37.27;34.13;;;;;;;;;;5033425;28;20480;-88
2022/05/20 03:36:46;;;;;;;37.13;34.13;;;;;;;;;;5033757;28;20819;-88
2022/05/20 03:39:14;;;;;;;36.83;33.80;;;;;;;;;;5032143;28;20508;-87
2022/05/20 03:41:42;;;;;;;37.33;34.33;;;;;;;;;;5033264;28;20423;-87
2022/05/20 03:44:10;;;;;;;35.57;32.67;;;;;;;;;;5033928;28;20896;-88
2022/05/20 03:46:40;;;;;;;37.10;34.10;;;;;;;;;;5033615;28;20434;-88
2022/05/20 03:49:08;;;;;;;35.77;32.77;;;;;;;;;;5033053;28;20502;-88
2022/05/20 03:51:37;;;;;;;36.30;33.37;;;;;;;;;;5032194;28;20444;-88
2022/05/20 03:54:05;;;;;;;37.03;33.97;;;;;;;;;;5033058;28;20448;-88
2022/05/20 03:56:32;;;;;;;35.20;32.20;;;;;;;;;;5033234;28;20529;-88
2022/05/20 03:59:00;;;;;;;35.27;32.47;;;;;;;;;;5033691;28;20434;-88
2022/05/20 04:04:12;;;;;;;36.43;33.17;;;;;;;;;;5033236;28;20398;-88
2022/05/20 04:06:41;;;;;;;36.77;33.77;;;;;;;;;;5033867;28;20776;-88
2022/05/20 04:09:08;;;;;;;35.13;32.40;;;;;;;;;;5035325;28;20434;-88
2022/05/20 04:11:36;;;;;;;36.47;33.30;;;;;;;;;;5036922;28;20881;-88
2022/05/20 04:14:03;;;;;;;37.43;34.43;;;;;;;;;;5035273;28;20461;-87
2022/05/20 04:16:31;;;;;;;35.57;32.67;;;;;;;;;;5036497;28;20422;-88
2022/05/20 04:18:58;;;;;;;36.13;33.17;;;;;;;;;;5036982;28;20452;-87
2022/05/20 04:21:25;;;;;;;36.27;33.23;;;;;;;;;;5036400;28;20530;-88
2022/05/20 04:23:54;;;;;;;37.50;34.30;;;;;;;;;;5036558;28;20488;-88
2022/05/20 04:26:21;;;;;;;39.80;36.57;;;;;;;;;;5036901;28;20961;-88
2022/05/20 04:28:49;;;;;;;35.40;32.80;;;;;;;;;;5036627;28;20415;-87
2022/05/20 04:31:16;;;;;;;38.40;35.37;;;;;;;;;;5036732;28;21080;-88
2022/05/20 04:33:43;;;;;;;38.57;35.60;;;;;;;;;;5036313;28;20477;-88
2022/05/20 04:36:11;;;;;;;36.10;33.50;;;;;;;;;;5036166;28;20411;-89
2022/05/20 04:38:38;;;;;;;36.00;33.30;;;;;;;;;;5035146;28;20459;-87
2022/05/20 04:49:22;;;;;;;38.27;35.17;;;;;;;;;;5036039;28;20451;-88
2022/05/20 04:51:49;;;;;;;37.80;34.90;;;;;;;;;;5036254;28;20464;-88
2022/05/20 04:57:03;;;;;;;38.10;35.20;;;;;;;;;;5035953;28;20438;-87
2022/05/20 04:59:31;;;;;;;37.37;34.67;;;;;;;;;;5035674;28;20517;-87
2022/05/20 05:01:58;;;;;;;37.30;34.50;;;;;;;;;;5035633;28;20464;-88
2022/05/20 05:04:25;;;;;;;36.60;33.60;;;;;;;;;;5035550;28;20436;-88
2022/05/20 05:06:53;;;;;;;37.27;34.17;;;;;;;;;;5036133;28;20407;-87
2022/05/20 05:09:20;;;;;;;36.53;33.43;;;;;;;;;;5036253;28;20469;-87
2022/05/20 05:11:48;;;;;;;36.13;33.03;;;;;;;;;;5035761;28;20438;-88
2022/05/20 05:14:17;;;;;;;33.63;31.03;;;;;;;;;;5035605;28;20824;-88
2022/05/20 05:16:44;;;;;;;32.07;29.47;;;;;;;;;;5035635;28;20884;-88
2022/05/20 05:19:12;;;;;;;35.30;32.60;;;;;;;;;;5035272;28;20428;-88
2022/05/20 05:21:40;;;;;;;34.10;31.13;;;;;;;;;;5035377;28;20500;-88
2022/05/20 05:24:08;;;;;;;33.90;31.30;;;;;;;;;;5035099;28;20488;-87
2022/05/20 05:26:36;;;;;;;33.73;31.07;;;;;;;;;;5035348;28;20452;-89
2022/05/20 05:29:04;;;;;;;32.80;30.40;;;;;;;;;;5017844;28;20986;-89
2022/05/20 05:31:33;;;;;;;33.13;30.47;;;;;;;;;;5035515;28;20777;-89
2022/05/20 05:34:01;;;;;;;31.67;29.27;;;;;;;;;;5035107;28;20415;-89
2022/05/20 05:36:28;;;;;;;31.13;28.60;;;;;;;;;;5035419;28;20882;-88
2022/05/20 05:38:55;;;;;;;33.13;30.37;;;;;;;;;;5034123;28;20465;-89
2022/05/20 05:41:23;;;;;;;32.23;29.77;;;;;;;;;;5035120;28;20421;-90
2022/05/20 05:43:51;;;;;;;33.13;30.73;;;;;;;;;;5035464;28;20519;-87
2022/05/20 05:46:18;;;;;;;32.47;29.97;;;;;;;;;;5035176;28;20447;-91
2022/05/20 05:48:47;;;;;;;33.23;30.63;;;;;;;;;;5035295;28;20422;-91
2022/05/20 05:51:14;;;;;;;31.73;29.33;;;;;;;;;;5034909;28;20443;-91
2022/05/20 05:53:41;;;;;;;33.13;30.53;;;;;;;;;;5034107;28;20792;-91
2022/05/20 05:56:09;;;;;;;32.87;30.40;;;;;;;;;;5034987;28;20446;-90
2022/05/20 05:58:37;;;;;;;31.97;29.57;;;;;;;;;;5034842;28;20517;-90
2022/05/20 06:01:05;;;;;;;32.00;29.60;;;;;;;;;;5034685;28;20410;-90
2022/05/20 06:03:32;;;;;;;33.30;30.73;;;;;;;;;;5034803;28;20487;-90
2022/05/20 06:06:01;;;;;;;32.33;29.83;;;;;;;;;;5035991;28;20494;-89
2022/05/20 06:08:29;;;;;;;33.27;30.30;;;;;;;;;;5033834;28;20791;-90
2022/05/20 06:10:56;;;;;;;31.20;28.73;;;;;;;;;;5034582;28;20469;-90
2022/05/20 06:13:24;;;;;;;31.77;29.27;;;;;;;;;;5017671;28;20448;-90
2022/05/20 06:15:52;;;;;;;31.20;28.50;;;;;;;;;;5034053;28;20920;-90
2022/05/20 06:18:20;;;;;;;31.67;29.30;;;;;;;;;;5033758;28;20448;-90
2022/05/20 06:20:47;;;;;;;30.23;28.03;;;;;;;;;;5034903;28;20450;-89
2022/05/20 06:23:16;;;;;;;30.83;28.57;;;;;;;;;;5034921;28;20465;-92
2022/05/20 06:25:44;;;;;;;31.63;29.33;;;;;;;;;;5034611;28;20438;-90
2022/05/20 06:28:12;;;;;;;31.07;28.77;;;;;;;;;;5034379;28;20411;-89
2022/05/20 06:30:40;;;;;;;32.67;30.07;;;;;;;;;;5033740;28;20881;-89
2022/05/20 06:33:08;;;;;;;31.47;29.17;;;;;;;;;;5032827;28;20455;-89
2022/05/20 06:41:07;;;;;;;28.40;26.30;;;;;;;;;;5034053;28;20791;-89
2022/05/20 06:43:35;;;;;;;28.87;26.50;;;;;;;;;;5034135;28;20462;-90
2022/05/20 06:46:04;;;;;;;28.03;26.13;;;;;;;;;;5034232;28;20444;-90
2022/05/20 06:48:39;;;;;;;25.70;23.90;;;;;;;;;;5034423;28;20436;-90
2022/05/20 06:51:06;;;;;;;25.60;23.90;;;;;;;;;;5016991;28;20469;-90
2022/05/20 06:53:35;;;;;;;26.53;24.80;;;;;;;;;;5017108;28;20419;-89
2022/05/20 06:56:03;;;;;;;28.00;25.90;;;;;;;;;;5033863;28;20464;-89
2022/05/20 06:58:31;;;;;;;27.63;25.80;;;;;;;;;;5034490;28;20411;-89
2022/05/20 07:00:59;;;;;;;27.47;25.57;;;;;;;;;;5033925;28;20407;-89
2022/05/20 07:03:27;;;;;;;26.40;24.53;;;;;;;;;;5016737;28;20468;-90
2022/05/20 07:05:54;;;;;;;25.90;24.00;;;;;;;;;;5034323;28;20457;-90
2022/05/20 07:08:22;;;;;;;26.90;25.03;;;;;;;;;;5033021;28;20419;-89
2022/05/20 07:10:51;;;;;;;27.63;25.70;;;;;;;;;;5034170;28;20469;-90
2022/05/20 07:13:18;;;;;;;28.70;26.47;;;;;;;;;;5034150;28;20792;-90
2022/05/20 07:15:46;;;;;;;27.30;25.40;;;;;;;;;;5033887;28;20490;-88
2022/05/20 07:18:13;;;;;;;27.80;25.87;;;;;;;;;;5016542;28;20456;-89
2022/05/20 07:20:40;;;;;;;25.40;23.80;;;;;;;;;;5033953;28;20470;-90
2022/05/20 07:23:08;;;;;;;26.73;24.80;;;;;;;;;;5033890;28;20519;-89
2022/05/20 07:25:37;;;;;;;24.43;22.93;;;;;;;;;;5033586;28;20436;-89
2022/05/20 07:28:06;;;;;;;25.83;23.93;;;;;;;;;;5033737;28;20513;-90
2022/05/20 07:30:34;;;;;;;24.33;22.73;;;;;;;;;;5033692;28;20433;-91
2022/05/20 07:33:02;;;;;;;23.10;21.57;;;;;;;;;;5032887;28;20452;-90
2022/05/20 07:35:29;;;;;;;23.90;22.50;;;;;;;;;;5033525;28;20452;-90
2022/05/20 07:37:57;;;;;;;23.13;21.80;;;;;;;;;;5034217;28;20453;-91
2022/05/20 07:40:24;;;;;;;22.43;21.23;;;;;;;;;;5033631;28;20414;-90
2022/05/20 07:42:52;;;;;;;23.30;21.90;;;;;;;;;;5033878;28;20423;-91
2022/05/20 07:45:21;;;;;;;23.63;22.13;;;;;;;;;;5037278;28;20491;-89
2022/05/20 07:47:49;;;;;;;23.27;21.77;;;;;;;;;;5037040;28;20491;-93
2022/05/20 07:50:16;;;;;;;22.37;20.97;;;;;;;;;;5037237;28;20920;-92
2022/05/20 07:55:33;;;;;;;24.77;23.10;;;;;;;;;;5036991;28;20741;-87
2022/05/20 07:58:02;;;;;;;25.47;23.80;;;;;;;;;;5037584;28;20476;-94
2022/05/20 08:00:32;;;;;;;25.07;23.40;;;;;;;;;;5020397;28;20433;-95
2022/05/20 08:03:01;;;;;;;23.37;21.93;;;;;;;;;;5037758;28;20445;-96
2022/05/20 08:05:29;;;;;;;24.57;22.77;;;;;;;;;;5037549;28;20415;-93
2022/05/20 08:07:59;;;;;;;24.80;23.10;;;;;;;;;;5037256;28;20504;-95
2022/05/20 08:10:29;;;;;;;23.53;22.03;;;;;;;;;;5036816;28;20485;-89
2022/05/20 08:12:57;;;;;;;24.30;22.50;;;;;;;;;;5037051;28;20841;-89
2022/05/20 08:15:25;;;;;;;22.40;21.03;;;;;;;;;;5035443;28;20427;-88
2022/05/20 08:17:54;;;;;;;23.37;21.77;;;;;;;;;;5036859;28;20477;-90
2022/05/20 08:20:25;;;;;;;23.13;21.57;;;;;;;;;;5036535;28;20431;-93
2022/05/20 08:22:54;;;;;;;23.53;22.03;;;;;;;;;;5036702;28;20653;-92
2022/05/20 08:25:22;;;;;;;23.27;21.70;;;;;;;;;;5036463;28;20520;-93
2022/05/20 08:27:49;;;;;;;23.97;22.53;;;;;;;;;;5036799;28;20473;-90
2022/05/20 08:30:18;;;;;;;23.70;22.00;;;;;;;;;;5036392;28;20417;-90
2022/05/20 08:32:45;;;;;;;23.60;22.10;;;;;;;;;;5036174;28;20460;-92
2022/05/20 08:35:14;;;;;;;24.00;22.40;;;;;;;;;;5035316;28;20509;-93
2022/05/20 08:37:42;;;;;;;24.10;22.53;;;;;;;;;;5036455;28;20445;-89
2022/05/20 08:40:11;;;;;;;23.80;22.40;;;;;;;;;;5036336;28;20447;-93
2022/05/20 08:42:39;;;;;;;25.13;23.23;;;;;;;;;;5035238;28;20452;-94
2022/05/20 08:45:07;;;;;;;24.23;22.57;;;;;;;;;;5018780;28;20492;-92
2022/05/20 08:47:43;;;;;;;22.93;21.50;;;;;;;;;;5036240;28;20403;-93
2022/05/20 08:50:13;;;;;;;22.03;20.73;;;;;;;;;;5036515;28;20430;-92
2022/05/20 08:52:42;;;;;;;21.63;20.33;;;;;;;;;;5036274;28;20455;-91
2022/05/20 08:55:10;;;;;;;21.90;20.53;;;;;;;;;;5035646;28;20460;-90
2022/05/20 08:57:38;;;;;;;21.60;20.20;;;;;;;;;;5036212;28;20558;-92
2022/05/20 09:00:06;;;;;;;21.77;20.40;;;;;;;;;;5036381;28;20459;-92
2022/05/20 09:02:33;;;;;;;24.73;23.10;;;;;;;;;;5034705;28;20418;-91
2022/05/20 09:05:01;;;;;;;23.23;21.83;;;;;;;;;;5036056;28;20480;-92
2022/05/20 09:07:28;;;;;;;24.00;22.50;;;;;;;;;;5035815;28;20432;-91
2022/05/20 09:09:59;;;;;;;24.43;22.83;;;;;;;;;;5002053;28;20431;-91
2022/05/20 09:12:31;;;;;;;23.90;22.50;;;;;;;;;;5035828;28;20415;-91
2022/05/20 09:17:48;;;;;;;24.63;23.13;;;;;;;;;;5035818;28;20432;-93
2022/05/20 09:20:18;;;;;;;24.70;23.20;;;;;;;;;;5035628;28;20441;-92
2022/05/20 09:22:55;;;;;;;25.80;24.20;;;;;;;;;;5036000;28;20936;-93
2022/05/20 09:25:26;;;;;;;26.53;24.37;;;;;;;;;;5035595;28;20573;-89
2022/05/20 09:27:54;;;;;;;25.50;23.90;;;;;;;;;;5035460;28;20427;-90
2022/05/20 09:30:24;;;;;;;26.13;24.50;;;;;;;;;;5034598;28;20510;-89
2022/05/20 09:33:01;;;;;;;26.00;24.40;;;;;;;;;;5035056;28;20454;-93
2022/05/20 09:35:33;;;;;;;26.40;24.70;;;;;;;;;;5035682;28;20449;-93
2022/05/20 09:38:00;;;;;;;26.53;24.57;;;;;;;;;;5035811;28;20411;-90
2022/05/20 09:40:34;;;;;;;26.33;24.63;;;;;;;;;;5036154;28;20448;-90
2022/05/20 09:43:05;;;;;;;27.90;25.90;;;;;;;;;;5035545;28;20421;-93
2022/05/20 09:45:36;;;;;;;26.83;25.10;;;;;;;;;;5034309;28;20546;-92
2022/05/20 09:48:04;;;;;;;26.80;25.10;;;;;;;;;;5035318;28;20848;-92
2022/05/20 09:50:34;;;;;;;27.47;25.77;;;;;;;;;;5035279;28;20455;-91
2022/05/20 09:53:03;;;;;;;27.07;24.90;;;;;;;;;;5034087;28;20526;-93
2022/05/20 09:55:34;;;;;;;27.63;25.63;;;;;;;;;;5034202;28;20468;-92
2022/05/20 09:58:12;;;;;;;28.00;26.07;;;;;;;;;;5035342;28;20456;-91
2022/05/20 10:00:40;;;;;;;27.90;26.10;;;;;;;;;;5034999;28;20418;-92
2022/05/20 10:03:11;;;;;;;27.30;25.33;;;;;;;;;;5035180;28;20415;-91
2022/05/20 10:05:44;;;;;;;27.00;25.30;;;;;;;;;;5034067;28;20479;-91
2022/05/20 10:08:14;;;;;;;29.33;27.17;;;;;;;;;;5034851;28;20482;-91
2022/05/20 10:10:57;;;;;;;28.27;26.27;;;;;;;;;;5017607;28;20452;-91
2022/05/20 10:13:29;;;;;;;30.13;28.03;;;;;;;;;;5031936;28;20451;-93
2022/05/20 10:16:04;;;;;;;27.67;25.83;;;;;;;;;;5034989;28;20459;-91
2022/05/20 10:18:37;;;;;;;28.00;26.17;;;;;;;;;;5034825;28;20452;-91
2022/05/20 10:21:10;;;;;;;29.33;27.40;;;;;;;;;;5034645;28;20451;-91
2022/05/20 10:23:40;;;;;;;26.73;24.97;;;;;;;;;;5035864;28;20427;-91
2022/05/20 10:26:10;;;;;;;28.13;26.23;;;;;;;;;;5034649;28;20463;-91
2022/05/20 10:34:16;;;;;;;28.60;26.70;;;;;;;;;;5035188;28;20465;-90
2022/05/20 10:36:52;;;;;;;28.50;26.57;;;;;;;;;;5033401;28;20827;-91
2022/05/20 10:39:27;;;;;;;27.67;25.97;;;;;;;;;;5034360;28;20900;-91
2022/05/20 10:42:02;;;;;;;29.27;27.30;;;;;;;;;;5034092;28;20414;-92
2022/05/20 10:50:24;;;;;;;27.13;25.43;;;;;;;;;;5034219;28;20494;-91
2022/05/20 10:53:10;;;;;;;28.57;26.50;;;;;;;;;;5000932;28;20437;-92
2022/05/20 10:55:42;;;;;;;29.13;27.30;;;;;;;;;;5034598;28;20435;-91
2022/05/20 10:58:36;;;;;;;27.50;25.23;;;;;;;;;;5042385;28;20997;-91
2022/05/20 11:01:09;;;;;;;27.07;25.33;;;;;;;;;;5045563;28;20414;-92
2022/05/20 11:03:54;;;;;;;28.27;26.47;;;;;;;;;;5041195;28;20399;-91
2022/05/20 11:06:39;;;;;;;27.23;25.60;;;;;;;;;;5000129;28;20965;-91
2022/05/20 11:09:08;;;;;;;26.60;24.90;;;;;;;;;;5039925;28;20444;-90
2022/05/20 11:11:40;;;;;;;28.30;26.60;;;;;;;;;;5036673;28;20480;-87
2022/05/20 11:14:22;;;;;;;28.80;27.03;;;;;;;;;;5033806;28;20422;-91
2022/05/20 11:16:59;;;;;;;27.10;25.53;;;;;;;;;;5034103;28;20452;-91
2022/05/20 11:19:39;;;;;;;27.17;25.47;;;;;;;;;;5037988;28;20864;-89
2022/05/20 11:22:11;;;;;;;26.50;25.00;;;;;;;;;;5020216;28;20494;-90
2022/05/20 11:24:50;;;;;;;26.93;25.33;;;;;;;;;;5036491;28;20475;-90
2022/05/20 11:27:27;;;;;;;27.37;25.50;;;;;;;;;;5037991;28;20863;-89
2022/05/20 11:30:00;;;;;;;27.23;25.63;;;;;;;;;;5037955;28;20411;-90
2022/05/20 11:32:34;;;;;;;26.80;25.10;;;;;;;;;;5036275;28;20947;-90
2022/05/20 11:35:11;;;;;;;27.77;26.10;;;;;;;;;;5037432;28;20447;-90
2022/05/20 11:37:47;;;;;;;25.30;23.80;;;;;;;;;;5037925;28;20467;-90
2022/05/20 11:40:30;;;;;;;28.30;26.30;;;;;;;;;;5037686;28;20517;-91
2022/05/20 11:43:04;;;;;;;28.03;26.33;;;;;;;;;;5036226;28;20452;-90
2022/05/20 11:45:36;;;;;;;26.90;25.20;;;;;;;;;;5037346;28;20918;-90
2022/05/20 11:48:10;;;;;;;26.77;25.07;;;;;;;;;;5037548;28;20422;-91
2022/05/20 11:50:49;;;;;;;28.90;26.90;;;;;;;;;;5036188;28;20462;-91
2022/05/20 11:53:21;;;;;;;29.53;27.53;;;;;;;;;;5037283;28;20479;-91
2022/05/20 11:55:51;;;;;;;32.50;30.00;;;;;;;;;;5037215;28;20768;-91
2022/05/20 11:58:21;;;;;;;30.00;27.80;;;;;;;;;;5037489;28;20411;-91
2022/05/20 12:00:49;;;;;;;31.17;29.07;;;;;;;;;;5037242;28;20436;-91
2022/05/20 12:03:20;;;;;;;32.80;30.10;;;;;;;;;;5037382;28;20467;-91
2022/05/20 12:05:49;;;;;;;29.80;27.80;;;;;;;;;;5037366;28;20458;-92
2022/05/20 12:08:45;;;;;;;30.70;28.80;;;;;;;;;;5037396;28;20511;-93
2022/05/20 12:11:21;;;;;;;32.53;30.23;;;;;;;;;;4957113;29;20455;-92
2022/05/20 12:14:00;;;;;;;30.90;28.87;;;;;;;;;;4957132;29;20462;-93
2022/05/20 12:16:28;;;;;;;30.10;27.90;;;;;;;;;;4957170;29;20446;-93
2022/05/20 12:24:49;;;;;;;30.47;28.30;;;;;;;;;;4937874;29;20480;-92
2022/05/20 12:27:32;;;;;;;31.00;28.50;;;;;;;;;;4937394;29;20793;-92
2022/05/20 12:30:00;;;;;;;33.10;30.70;;;;;;;;;;4936668;28;20460;-93
2022/05/20 12:32:31;;;;;;;32.43;30.03;;;;;;;;;;4937488;29;20488;-93
2022/05/20 12:35:07;;;;;;;31.27;29.07;;;;;;;;;;4921598;29;20499;-93
2022/05/20 12:37:57;;;;;;;31.50;29.30;;;;;;;;;;4937565;29;20469;-92
2022/05/20 12:40:46;;;;;;;31.80;29.70;;;;;;;;;;4921640;29;20518;-92
2022/05/20 12:43:14;;;;;;;34.20;31.60;;;;;;;;;;4937229;29;20464;-90
2022/05/20 12:45:47;;;;;;;32.03;29.80;;;;;;;;;;4937581;29;20504;-92
2022/05/20 12:48:14;;;;;;;32.80;30.60;;;;;;;;;;4975641;28;20445;-92
2022/05/20 12:50:43;;;;;;;30.50;28.50;;;;;;;;;;4975671;28;20457;-93
2022/05/20 12:53:12;;;;;;;29.97;27.97;;;;;;;;;;4959679;28;20881;-92
2022/05/20 12:55:43;;;;;;;28.57;26.60;;;;;;;;;;4987775;28;20892;-93
2022/05/20 12:58:13;;;;;;;29.03;26.97;;;;;;;;;;5036295;28;20452;-93
2022/05/20 13:00:42;;;;;;;31.10;28.80;;;;;;;;;;5036308;28;20430;-93
2022/05/20 13:03:15;;;;;;;30.80;28.60;;;;;;;;;;5036229;28;20445;-92
2022/05/20 13:05:50;;;;;;;30.13;28.00;;;;;;;;;;5036276;28;20484;-92
2022/05/20 13:08:19;;;;;;;30.03;27.77;;;;;;;;;;5036325;28;20458;-92
2022/05/20 13:10:46;;;;;;;30.03;28.00;;;;;;;;;;5018335;28;20456;-91
2022/05/20 13:13:15;;;;;;;29.50;27.50;;;;;;;;;;5018293;28;20456;-92
2022/05/20 13:15:42;;;;;;;30.77;28.63;;;;;;;;;;5036324;28;20426;-91
2022/05/20 13:18:14;;;;;;;29.53;27.63;;;;;;;;;;5035790;28;20447;-91
2022/05/20 13:20:43;;;;;;;31.63;29.23;;;;;;;;;;5035534;28;20462;-91
2022/05/20 13:23:18;;;;;;;30.67;28.67;;;;;;;;;;5035927;28;20411;-91
2022/05/20 13:25:45;;;;;;;30.37;28.50;;;;;;;;;;5035471;28;20995;-93
2022/05/20 13:28:13;;;;;;;29.50;27.60;;;;;;;;;;5035857;28;20423;-93
2022/05/20 13:30:40;;;;;;;31.47;29.47;;;;;;;;;;5035552;28;20444;-93
2022/05/20 13:33:09;;;;;;;31.20;28.80;;;;;;;;;;5035450;28;20475;-93
2022/05/20 13:35:40;;;;;;;29.43;27.50;;;;;;;;;;5037147;28;20547;-93
2022/05/20 13:38:09;;;;;;;31.37;29.37;;;;;;;;;;5036872;28;20437;-92
2022/05/20 13:40:41;;;;;;;30.57;28.57;;;;;;;;;;5035853;28;20470;-92
2022/05/20 13:43:10;;;;;;;30.80;28.60;;;;;;;;;;5035947;28;20443;-93
2022/05/20 13:51:10;;;;;;;31.67;29.47;;;;;;;;;;5034976;28;20409;-93
2022/05/20 13:53:40;;;;;;;30.33;28.13;;;;;;;;;;5034129;28;20419;-93
2022/05/20 13:56:10;;;;;;;31.33;29.23;;;;;;;;;;5035185;28;20470;-92
2022/05/20 13:58:38;;;;;;;32.97;30.67;;;;;;;;;;5034978;28;20445;-92
2022/05/20 14:01:06;;;;;;;32.50;30.30;;;;;;;;;;5001166;28;20447;-92
2022/05/20 14:03:35;;;;;;;32.10;29.83;;;;;;;;;;5035005;28;20440;-93
2022/05/20 14:06:04;;;;;;;32.83;30.63;;;;;;;;;;5035188;28;20514;-91
2022/05/20 14:08:32;;;;;;;32.97;30.40;;;;;;;;;;5034780;28;20440;-94
2022/05/20 14:11:04;;;;;;;32.47;30.37;;;;;;;;;;5035228;28;20818;-92
2022/05/20 14:13:36;;;;;;;29.90;27.90;;;;;;;;;;5035148;28;20415;-93
2022/05/20 14:16:08;;;;;;;31.50;29.20;;;;;;;;;;5035061;28;20768;-92
2022/05/20 14:18:37;;;;;;;32.53;30.20;;;;;;;;;;5034858;28;20439;-90
2022/05/20 14:21:06;;;;;;;30.10;28.10;;;;;;;;;;5034535;28;20463;-93
2022/05/20 14:23:37;;;;;;;31.03;28.90;;;;;;;;;;5033640;28;20411;-92
2022/05/20 14:26:11;;;;;;;32.10;29.83;;;;;;;;;;5033675;28;20967;-94
2022/05/20 14:28:46;;;;;;;31.33;29.03;;;;;;;;;;5034304;28;20929;-93
2022/05/20 14:31:21;;;;;;;32.93;30.60;;;;;;;;;;5034356;28;20447;-94
2022/05/20 14:33:50;;;;;;;30.47;28.43;;;;;;;;;;5034050;28;20456;-90
2022/05/20 14:36:17;;;;;;;33.60;31.10;;;;;;;;;;5034277;28;20440;-93
2022/05/20 14:38:47;;;;;;;32.00;29.70;;;;;;;;;;5016971;28;20451;-95
2022/05/20 14:41:17;;;;;;;33.83;31.33;;;;;;;;;;5034703;28;20483;-95
2022/05/20 14:43:51;;;;;;;34.40;31.90;;;;;;;;;;5037454;28;20444;-95
2022/05/20 14:47:14;;;;;;;31.70;29.50;;;;;;;;;;5035480;28;20492;-92
2022/05/20 14:49:13;;;;;;;33.77;31.27;;;;;;;;;;5035351;28;20441;-92
2022/05/20 14:51:45;;;;;;;33.80;31.30;;;;;;;;;;5035133;28;20443;-95
2022/05/20 14:54:15;;;;;;;37.97;34.90;;;;;;;;;;5037603;28;20449;-95
2022/05/20 14:56:44;;;;;;;36.70;33.50;;;;;;;;;;5038239;28;20439;-96
2022/05/20 14:59:13;;;;;;;37.43;34.33;;;;;;;;;;5017226;28;20481;-92
2022/05/20 15:01:41;;;;;;;37.63;34.63;;;;;;;;;;5035140;28;20452;-92
2022/05/20 15:04:08;;;;;;;33.80;31.20;;;;;;;;;;5034323;28;20510;-92
2022/05/20 15:06:38;;;;;;;34.97;32.30;;;;;;;;;;5034006;28;20495;-92
2022/05/20 15:09:06;;;;;;;31.93;29.63;;;;;;;;;;5033938;28;20407;-92
2022/05/20 15:11:35;;;;;;;28.93;27.13;;;;;;;;;;5033815;28;20448;-92
2022/05/20 15:14:03;;;;;;;29.57;27.27;;;;;;;;;;5035104;28;20456;-91
2022/05/20 15:16:32;;;;;;;29.77;27.73;;;;;;;;;;5034305;28;20486;-92
2022/05/20 15:18:59;;;;;;;30.30;28.00;;;;;;;;;;5033673;28;20436;-92
2022/05/20 15:21:28;;;;;;;31.90;29.70;;;;;;;;;;5033790;28;20495;-92
2022/05/20 15:24:00;;;;;;;30.87;28.83;;;;;;;;;;5017512;28;20474;-91
2022/05/20 15:26:28;;;;;;;27.10;25.40;;;;;;;;;;5034045;28;20803;-92